Tallulah Falls, Georgia
Current Conditions -  °F | °C
As of 8:35 PM on Tuesday 27 Jan 2015 (Local Time) from KTOC Reporting Station
Clear Clear  
Wind Chill: 33°   Ceiling: Unl
Heat Index: 38°   Visibility: 10mi
Dew Point: 27°   Wind: 7mph
Humidity: 64%   Direction: 290°WNW
Pressure: 30.02"   Gusts: NA
Location:  34.73°N, 83.39°W
Report Text: KTOC 280135Z AUTO 29006KT 10SM CLR 03/M03 A3002 RMK AO2 T00331030
Loading
Personal Weather Stations






























Interactive Weather Map New forecast layout! Learn more

10-Day Weather Forecast

Advertisements
Track Severe Weather on mobile